PDT,Max TemperatureF,Mean TemperatureF,Min TemperatureF,Max Dew PointF,MeanDew PointF,Min DewpointF,Max Humidity, Mean Humidity, Min Humidity, Max Sea Level PressureIn, Mean Sea Level PressureIn, Min Sea Level PressureIn, Max VisibilityMiles, Mean VisibilityMiles, Min VisibilityMiles, Max Wind SpeedMPH, Mean Wind SpeedMPH, Max Gust SpeedMPH,PrecipitationIn, CloudCover, Events, WindDirDegrees
2013-7-1,88,78,69,63,61,58,75,57,40,30.00,29.95,29.91,10,8,1,12,7,,0.00,0,,321
2013-7-2,89,72,62,61,56,49,82,58,33,30.12,30.09,30.05,10,8,1,12,6,,0.00,0,,312
2013-7-3,82,71,63,54,50,44,64,50,40,30.17,30.11,30.05,10,7,1,12,8,16,0.00,2,,331
2013-7-4,72,66,60,52,37,30,67,39,28,30.15,30.11,30.05,10,10,8,8,4,,0.00,6,,182
2013-7-5,73,64,57,41,35,29,38,34,30,30.06,30.03,29.97,10,10,10,7,3,,0.00,5,,183
2013-7-6,79,66,55,36,32,30,41,29,18,30.01,29.95,29.88,10,10,9,13,4,,0.00,2,,274
2013-7-7,75,66,57,57,49,29,84,60,25,29.98,29.95,29.91,10,10,7,8,3,,0.00,3,,177
2013-7-8,79,68,57,58,54,51,82,67,45,30.11,30.07,29.99,10,10,8,9,6,,0.00,3,,207
2013-7-9,84,70,57,57,55,51,86,58,36,30.13,30.08,30.01,10,10,2,10,4,,0.00,0,,323
2013-7-10,72,66,59,56,54,51,87,70,55,30.09,30.04,29.96,10,10,6,12,5,,0.00,4,,234
2013-7-11,71,63,55,50,48,46,72,61,42,30.10,30.05,30.00,10,10,10,13,5,,0.00,5,,348
2013-7-12,68,62,57,52,49,45,83,64,52,30.13,30.06,30.04,10,10,10,7,3,,0.00,1,,308
2013-7-13,77,63,51,52,49,47,93,62,36,30.22,30.16,30.12,10,10,10,12,4,,0.00,0,,317
2013-7-14,81,67,53,52,48,43,86,52,26,30.16,30.09,30.00,10,10,10,12,3,,0.00,0,,336
2013-7-15,79,70,60,55,51,48,75,54,36,30.07,30.00,29.91,10,10,10,16,7,,0.00,1,,328
2013-7-16,86,74,63,58,53,49,70,49,31,29.91,29.87,29.80,10,10,9,14,9,16,0.00,0,Thunderstorm,316
2013-7-17,71,66,60,61,56,54,84,70,57,30.21,30.11,29.91,10,10,5,10,5,,0.02,5,Rain-Thunderstorm,179
2013-7-18,77,67,57,59,56,54,93,70,50,30.25,30.20,30.13,10,10,7,12,2,,0.00,4,,326
2013-7-19,80,68,57,59,57,55,94,72,47,30.19,30.13,30.05,10,9,6,13,5,,0.00,2,,320
2013-7-20,78,68,57,59,56,55,94,76,52,30.12,30.06,29.97,10,9,4,6,3,,0.00,4,,221
2013-7-21,75,65,55,58,56,54,97,75,52,30.01,29.98,29.92,10,9,3,7,4,,0.00,4,,176
2013-7-22,78,67,57,59,56,55,93,73,47,30.09,30.03,29.97,10,8,3,7,4,,0.00,4,,228
2013-7-23,84,70,57,60,55,51,93,61,32,30.08,30.04,29.98,10,10,9,12,5,,0.00,0,,315
2013-7-24,84,72,59,58,54,47,87,55,30,30.07,30.04,30.00,10,10,8,9,3,,0.00,0,,314
2013-7-25,84,70,55,55,52,48,84,54,28,30.12,30.09,30.04,10,9,8,10,5,,0.00,0,,322
2013-7-26,84,70,55,56,50,42,80,51,26,30.17,30.13,30.08,10,10,9,12,4,16,0.00,0,,335
2013-7-27,78,66,55,54,51,46,81,57,37,30.19,30.11,30.01,10,10,9,8,4,,0.00,0,,316
2013-7-28,70,62,55,53,52,50,88,71,55,30.06,30.03,29.98,10,8,3,10,6,,0.00,3,,175
2013-7-29,75,66,57,56,53,51,83,66,46,30.03,30.00,29.97,10,9,6,6,2,,0.00,4,,334
2013-7-30,78,68,57,58,54,53,88,68,43,30.16,30.11,30.04,10,9,7,8,3,,0.00,1,,179
2013-7-31,70,64,57,61,57,55,94,81,65,30.15,30.09,30.01,10,7,4,8,3,,0.00,5,Rain,172